sensor_id;sensor_type;location;lat;lon;timestamp;temperature;humidity
2913;DHT22;1466;48.778;9.166;2022-07-29T00:00:42;23.30;96.00
2913;DHT22;1466;48.778;9.166;2022-07-29T00:03:10;23.30;96.00
2913;DHT22;1466;48.778;9.166;2022-07-29T00:05:36;23.40;96.10
2913;DHT22;1466;48.778;9.166;2022-07-29T00:08:03;23.30;96.00
2913;DHT22;1466;48.778;9.166;2022-07-29T00:10:28;23.30;96.20
2913;DHT22;1466;48.778;9.166;2022-07-29T00:12:54;23.40;96.20
2913;DHT22;1466;48.778;9.166;2022-07-29T00:15:20;23.30;96.30
2913;DHT22;1466;48.778;9.166;2022-07-29T00:17:45;23.40;96.40
2913;DHT22;1466;48.778;9.166;2022-07-29T00:20:11;23.30;96.30
2913;DHT22;1466;48.778;9.166;2022-07-29T00:22:38;23.30;96.60
2913;DHT22;1466;48.778;9.166;2022-07-29T00:25:04;23.30;96.80
2913;DHT22;1466;48.778;9.166;2022-07-29T00:27:29;23.30;96.60
2913;DHT22;1466;48.778;9.166;2022-07-29T00:29:55;23.30;96.70
2913;DHT22;1466;48.778;9.166;2022-07-29T00:32:20;23.30;96.70
2913;DHT22;1466;48.778;9.166;2022-07-29T00:34:46;23.20;97.00
2913;DHT22;1466;48.778;9.166;2022-07-29T00:37:30;23.10;97.10
2913;DHT22;1466;48.778;9.166;2022-07-29T00:39:56;23.10;97.30
2913;DHT22;1466;48.778;9.166;2022-07-29T00:42:21;23.10;97.40
2913;DHT22;1466;48.778;9.166;2022-07-29T00:44:47;23.10;97.40
2913;DHT22;1466;48.778;9.166;2022-07-29T00:47:13;23.00;97.50
2913;DHT22;1466;48.778;9.166;2022-07-29T00:49:40;23.00;97.60
2913;DHT22;1466;48.778;9.166;2022-07-29T00:52:07;23.00;97.70
2913;DHT22;1466;48.778;9.166;2022-07-29T00:54:34;23.00;97.80
2913;DHT22;1466;48.778;9.166;2022-07-29T00:57:00;22.90;97.90
2913;DHT22;1466;48.778;9.166;2022-07-29T00:59:27;22.90;98.20
2913;DHT22;1466;48.778;9.166;2022-07-29T01:01:53;23.00;98.20
2913;DHT22;1466;48.778;9.166;2022-07-29T01:04:20;23.00;98.40
2913;DHT22;1466;48.778;9.166;2022-07-29T01:06:47;23.10;98.50
2913;DHT22;1466;48.778;9.166;2022-07-29T01:09:14;23.00;98.40
2913;DHT22;1466;48.778;9.166;2022-07-29T01:11:42;23.00;98.40
2913;DHT22;1466;48.778;9.166;2022-07-29T01:14:09;22.90;98.60
2913;DHT22;1466;48.778;9.166;2022-07-29T01:16:45;22.90;98.50
2913;DHT22;1466;48.778;9.166;2022-07-29T01:22:23;23.00;98.70
2913;DHT22;1466;48.778;9.166;2022-07-29T01:25:10;23.00;98.60
2913;DHT22;1466;48.778;9.166;2022-07-29T01:30:03;23.00;98.60
2913;DHT22;1466;48.778;9.166;2022-07-29T01:32:32;22.90;98.50
2913;DHT22;1466;48.778;9.166;2022-07-29T01:35:03;22.90;98.60
2913;DHT22;1466;48.778;9.166;2022-07-29T01:38:19;22.90;98.80
2913;DHT22;1466;48.778;9.166;2022-07-29T01:40:25;22.90;98.80
2913;DHT22;1466;48.778;9.166;2022-07-29T01:42:54;22.90;98.80
2913;DHT22;1466;48.778;9.166;2022-07-29T01:45:43;22.90;98.70
2913;DHT22;1466;48.778;9.166;2022-07-29T01:48:18;22.90;98.80
2913;DHT22;1466;48.778;9.166;2022-07-29T01:50:49;22.80;98.70
2913;DHT22;1466;48.778;9.166;2022-07-29T01:53:24;22.80;98.80
2913;DHT22;1466;48.778;9.166;2022-07-29T01:55:51;22.80;98.80
2913;DHT22;1466;48.778;9.166;2022-07-29T01:58:19;22.70;98.90
2913;DHT22;1466;48.778;9.166;2022-07-29T02:00:46;22.70;98.90
2913;DHT22;1466;48.778;9.166;2022-07-29T02:03:13;22.60;98.90
2913;DHT22;1466;48.778;9.166;2022-07-29T02:05:42;22.60;99.00
2913;DHT22;1466;48.778;9.166;2022-07-29T02:08:09;22.60;98.90
2913;DHT22;1466;48.778;9.166;2022-07-29T02:10:37;22.50;99.40
2913;DHT22;1466;48.778;9.166;2022-07-29T02:13:03;22.40;99.20
2913;DHT22;1466;48.778;9.166;2022-07-29T02:15:32;22.40;99.30
2913;DHT22;1466;48.778;9.166;2022-07-29T02:18:07;22.40;99.30
2913;DHT22;1466;48.778;9.166;2022-07-29T02:20:33;22.40;99.40
2913;DHT22;1466;48.778;9.166;2022-07-29T02:23:00;22.40;99.50
2913;DHT22;1466;48.778;9.166;2022-07-29T02:25:28;22.40;99.30
2913;DHT22;1466;48.778;9.166;2022-07-29T02:27:55;22.40;99.30
2913;DHT22;1466;48.778;9.166;2022-07-29T02:30:22;22.40;99.40
2913;DHT22;1466;48.778;9.166;2022-07-29T02:32:49;22.40;99.30
2913;DHT22;1466;48.778;9.166;2022-07-29T02:35:17;22.30;99.30
2913;DHT22;1466;48.778;9.166;2022-07-29T02:37:44;22.40;99.40
2913;DHT22;1466;48.778;9.166;2022-07-29T02:40:31;22.40;99.40
2913;DHT22;1466;48.778;9.166;2022-07-29T02:42:58;22.30;99.50
2913;DHT22;1466;48.778;9.166;2022-07-29T02:45:25;22.40;99.50
2913;DHT22;1466;48.778;9.166;2022-07-29T02:47:51;22.30;99.40
2913;DHT22;1466;48.778;9.166;2022-07-29T02:50:30;22.30;99.40
2913;DHT22;1466;48.778;9.166;2022-07-29T02:53:02;22.40;99.70
2913;DHT22;1466;48.778;9.166;2022-07-29T02:58:40;22.40;99.40
2913;DHT22;1466;48.778;9.166;2022-07-29T03:01:23;22.30;99.20
2913;DHT22;1466;48.778;9.166;2022-07-29T03:03:51;22.30;99.30
2913;DHT22;1466;48.778;9.166;2022-07-29T03:06:18;22.30;99.30
2913;DHT22;1466;48.778;9.166;2022-07-29T03:08:44;22.30;99.20
2913;DHT22;1466;48.778;9.166;2022-07-29T03:11:11;22.30;99.40
2913;DHT22;1466;48.778;9.166;2022-07-29T03:13:40;22.30;99.10
2913;DHT22;1466;48.778;9.166;2022-07-29T03:16:06;22.20;99.20
2913;DHT22;1466;48.778;9.166;2022-07-29T03:18:34;22.30;99.40
2913;DHT22;1466;48.778;9.166;2022-07-29T03:21:00;22.20;99.50
2913;DHT22;1466;48.778;9.166;2022-07-29T03:23:26;22.20;99.40
2913;DHT22;1466;48.778;9.166;2022-07-29T03:25:53;22.20;99.40
2913;DHT22;1466;48.778;9.166;2022-07-29T03:28:20;22.20;99.50
2913;DHT22;1466;48.778;9.166;2022-07-29T03:30:46;22.10;99.60
2913;DHT22;1466;48.778;9.166;2022-07-29T03:33:12;22.10;99.70
2913;DHT22;1466;48.778;9.166;2022-07-29T03:35:38;22.20;99.80
2913;DHT22;1466;48.778;9.166;2022-07-29T03:38:03;22.20;99.80
2913;DHT22;1466;48.778;9.166;2022-07-29T03:40:43;22.20;99.70
2913;DHT22;1466;48.778;9.166;2022-07-29T03:43:11;22.20;99.70
2913;DHT22;1466;48.778;9.166;2022-07-29T03:45:37;22.20;99.70
2913;DHT22;1466;48.778;9.166;2022-07-29T03:48:09;22.20;99.90
2913;DHT22;1466;48.778;9.166;2022-07-29T03:50:35;22.30;99.90
2913;DHT22;1466;48.778;9.166;2022-07-29T03:53:02;22.30;99.70
2913;DHT22;1466;48.778;9.166;2022-07-29T03:55:29;22.20;99.60
2913;DHT22;1466;48.778;9.166;2022-07-29T03:57:57;22.10;99.70
2913;DHT22;1466;48.778;9.166;2022-07-29T04:00:24;22.10;99.90
2913;DHT22;1466;48.778;9.166;2022-07-29T04:02:50;22.10;99.90
2913;DHT22;1466;48.778;9.166;2022-07-29T04:05:18;22.10;99.90
2913;DHT22;1466;48.778;9.166;2022-07-29T04:07:45;22.10;99.90
2913;DHT22;1466;48.778;9.166;2022-07-29T04:10:11;22.20;99.90
2913;DHT22;1466;48.778;9.166;2022-07-29T04:12:36;22.20;99.90
2913;DHT22;1466;48.778;9.166;2022-07-29T04:15:03;22.20;99.90
2913;DHT22;1466;48.778;9.166;2022-07-29T04:17:29;22.20;99.90
2913;DHT22;1466;48.778;9.166;2022-07-29T04:19:55;22.20;99.90
2913;DHT22;1466;48.778;9.166;2022-07-29T04:22:20;22.20;99.90
2913;DHT22;1466;48.778;9.166;2022-07-29T04:24:46;22.10;99.90
2913;DHT22;1466;48.778;9.166;2022-07-29T04:27:11;22.20;99.90
2913;DHT22;1466;48.778;9.166;2022-07-29T04:29:37;22.30;99.90
2913;DHT22;1466;48.778;9.166;2022-07-29T04:32:03;22.30;99.90
2913;DHT22;1466;48.778;9.166;2022-07-29T04:34:29;22.30;99.90
2913;DHT22;1466;48.778;9.166;2022-07-29T04:36:55;22.30;99.80
2913;DHT22;1466;48.778;9.166;2022-07-29T04:39:20;22.30;99.70
2913;DHT22;1466;48.778;9.166;2022-07-29T04:41:46;22.40;99.80
2913;DHT22;1466;48.778;9.166;2022-07-29T04:44:12;22.30;99.80
2913;DHT22;1466;48.778;9.166;2022-07-29T04:46:38;22.40;99.70
2913;DHT22;1466;48.778;9.166;2022-07-29T04:49:04;22.40;99.40
2913;DHT22;1466;48.778;9.166;2022-07-29T04:51:30;22.40;99.40
2913;DHT22;1466;48.778;9.166;2022-07-29T04:53:56;22.40;99.50
2913;DHT22;1466;48.778;9.166;2022-07-29T04:56:21;22.40;99.40
2913;DHT22;1466;48.778;9.166;2022-07-29T04:58:47;22.30;99.40
2913;DHT22;1466;48.778;9.166;2022-07-29T05:01:13;22.30;99.50
2913;DHT22;1466;48.778;9.166;2022-07-29T05:03:39;22.20;99.40
2913;DHT22;1466;48.778;9.166;2022-07-29T05:06:05;22.20;99.50
2913;DHT22;1466;48.778;9.166;2022-07-29T05:08:31;22.20;99.40
2913;DHT22;1466;48.778;9.166;2022-07-29T05:10:56;22.10;99.30
2913;DHT22;1466;48.778;9.166;2022-07-29T05:13:22;22.20;99.40
2913;DHT22;1466;48.778;9.166;2022-07-29T05:15:48;22.30;99.20
2913;DHT22;1466;48.778;9.166;2022-07-29T05:18:13;22.30;99.00
2913;DHT22;1466;48.778;9.166;2022-07-29T05:20:39;22.30;98.90
2913;DHT22;1466;48.778;9.166;2022-07-29T05:23:05;22.40;99.00
2913;DHT22;1466;48.778;9.166;2022-07-29T05:25:30;22.40;98.80
2913;DHT22;1466;48.778;9.166;2022-07-29T05:27:56;22.50;98.60
2913;DHT22;1466;48.778;9.166;2022-07-29T05:30:22;22.40;98.70
2913;DHT22;1466;48.778;9.166;2022-07-29T05:32:48;22.50;98.60
2913;DHT22;1466;48.778;9.166;2022-07-29T05:35:14;22.50;98.50
2913;DHT22;1466;48.778;9.166;2022-07-29T05:37:40;22.60;98.50
2913;DHT22;1466;48.778;9.166;2022-07-29T05:40:08;22.70;98.40
2913;DHT22;1466;48.778;9.166;2022-07-29T05:42:35;22.80;98.10
2913;DHT22;1466;48.778;9.166;2022-07-29T05:45:01;22.80;98.10
2913;DHT22;1466;48.778;9.166;2022-07-29T05:47:27;22.90;98.00
2913;DHT22;1466;48.778;9.166;2022-07-29T05:49:53;23.00;98.00
2913;DHT22;1466;48.778;9.166;2022-07-29T05:52:20;23.00;97.90
2913;DHT22;1466;48.778;9.166;2022-07-29T05:54:46;23.10;97.80
2913;DHT22;1466;48.778;9.166;2022-07-29T05:57:19;23.20;97.60
2913;DHT22;1466;48.778;9.166;2022-07-29T05:59:46;23.20;97.50
2913;DHT22;1466;48.778;9.166;2022-07-29T06:02:11;23.30;97.40
2913;DHT22;1466;48.778;9.166;2022-07-29T06:04:37;23.40;97.40
2913;DHT22;1466;48.778;9.166;2022-07-29T06:07:03;23.50;97.20
2913;DHT22;1466;48.778;9.166;2022-07-29T06:09:29;23.50;97.10
2913;DHT22;1466;48.778;9.166;2022-07-29T06:11:54;23.70;97.00
2913;DHT22;1466;48.778;9.166;2022-07-29T06:14:20;23.70;96.90
2913;DHT22;1466;48.778;9.166;2022-07-29T06:16:46;23.80;96.70
2913;DHT22;1466;48.778;9.166;2022-07-29T06:19:11;23.80;96.50
2913;DHT22;1466;48.778;9.166;2022-07-29T06:21:42;23.90;96.40
2913;DHT22;1466;48.778;9.166;2022-07-29T06:24:08;23.90;96.40
2913;DHT22;1466;48.778;9.166;2022-07-29T06:26:33;24.10;96.30
2913;DHT22;1466;48.778;9.166;2022-07-29T06:28:59;24.20;96.10
2913;DHT22;1466;48.778;9.166;2022-07-29T06:31:24;24.40;95.80
2913;DHT22;1466;48.778;9.166;2022-07-29T06:33:50;24.30;95.80
2913;DHT22;1466;48.778;9.166;2022-07-29T06:36:16;24.40;95.60
2913;DHT22;1466;48.778;9.166;2022-07-29T06:38:42;24.50;95.50
2913;DHT22;1466;48.778;9.166;2022-07-29T06:41:08;24.50;95.50
2913;DHT22;1466;48.778;9.166;2022-07-29T06:43:39;24.60;95.40
2913;DHT22;1466;48.778;9.166;2022-07-29T06:46:08;24.60;95.30
2913;DHT22;1466;48.778;9.166;2022-07-29T06:48:35;24.80;95.10
2913;DHT22;1466;48.778;9.166;2022-07-29T06:51:02;24.80;95.00
2913;DHT22;1466;48.778;9.166;2022-07-29T06:53:29;24.90;95.00
2913;DHT22;1466;48.778;9.166;2022-07-29T06:55:54;25.00;94.90
2913;DHT22;1466;48.778;9.166;2022-07-29T06:58:20;25.00;94.80
2913;DHT22;1466;48.778;9.166;2022-07-29T07:00:47;25.10;94.60
2913;DHT22;1466;48.778;9.166;2022-07-29T07:03:14;25.20;94.50
2913;DHT22;1466;48.778;9.166;2022-07-29T07:05:40;25.30;94.30
2913;DHT22;1466;48.778;9.166;2022-07-29T07:08:06;25.40;94.30
2913;DHT22;1466;48.778;9.166;2022-07-29T07:10:32;25.50;94.20
2913;DHT22;1466;48.778;9.166;2022-07-29T07:12:58;25.60;94.00
2913;DHT22;1466;48.778;9.166;2022-07-29T07:15:24;25.70;93.90
2913;DHT22;1466;48.778;9.166;2022-07-29T07:17:50;25.70;93.70
2913;DHT22;1466;48.778;9.166;2022-07-29T07:20:16;25.70;93.60
2913;DHT22;1466;48.778;9.166;2022-07-29T07:22:42;25.60;93.50
2913;DHT22;1466;48.778;9.166;2022-07-29T07:25:08;25.60;93.30
2913;DHT22;1466;48.778;9.166;2022-07-29T07:27:34;25.60;93.40
2913;DHT22;1466;48.778;9.166;2022-07-29T07:30:01;25.70;93.40
2913;DHT22;1466;48.778;9.166;2022-07-29T07:32:26;25.70;93.40
2913;DHT22;1466;48.778;9.166;2022-07-29T07:34:52;25.70;93.40
2913;DHT22;1466;48.778;9.166;2022-07-29T07:37:18;25.70;93.40
2913;DHT22;1466;48.778;9.166;2022-07-29T07:39:45;25.80;93.20
2913;DHT22;1466;48.778;9.166;2022-07-29T07:42:11;25.90;93.20
2913;DHT22;1466;48.778;9.166;2022-07-29T07:44:39;26.00;93.10
2913;DHT22;1466;48.778;9.166;2022-07-29T07:47:05;26.10;93.00
2913;DHT22;1466;48.778;9.166;2022-07-29T07:49:30;26.20;92.80
2913;DHT22;1466;48.778;9.166;2022-07-29T07:51:56;26.30;92.70
2913;DHT22;1466;48.778;9.166;2022-07-29T07:54:21;26.40;92.50
2913;DHT22;1466;48.778;9.166;2022-07-29T07:56:47;26.40;91.70
2913;DHT22;1466;48.778;9.166;2022-07-29T07:59:16;26.20;90.90
2913;DHT22;1466;48.778;9.166;2022-07-29T08:01:42;26.10;90.90
2913;DHT22;1466;48.778;9.166;2022-07-29T08:04:08;26.10;90.50
2913;DHT22;1466;48.778;9.166;2022-07-29T08:06:34;26.00;90.50
2913;DHT22;1466;48.778;9.166;2022-07-29T08:09:06;26.00;90.60
2913;DHT22;1466;48.778;9.166;2022-07-29T08:11:31;26.10;90.50
2913;DHT22;1466;48.778;9.166;2022-07-29T08:13:57;26.10;90.00
2913;DHT22;1466;48.778;9.166;2022-07-29T08:16:23;26.10;90.00
2913;DHT22;1466;48.778;9.166;2022-07-29T08:18:50;26.20;90.10
2913;DHT22;1466;48.778;9.166;2022-07-29T08:21:17;26.20;89.60
2913;DHT22;1466;48.778;9.166;2022-07-29T08:23:46;26.20;89.60
2913;DHT22;1466;48.778;9.166;2022-07-29T08:26:15;26.20;89.20
2913;DHT22;1466;48.778;9.166;2022-07-29T08:28:42;26.20;89.60
2913;DHT22;1466;48.778;9.166;2022-07-29T08:31:11;26.20;89.70
2913;DHT22;1466;48.778;9.166;2022-07-29T08:33:38;26.40;89.50
2913;DHT22;1466;48.778;9.166;2022-07-29T08:36:04;26.60;89.30
2913;DHT22;1466;48.778;9.166;2022-07-29T08:38:30;26.60;87.50
2913;DHT22;1466;48.778;9.166;2022-07-29T08:40:55;26.30;87.30
2913;DHT22;1466;48.778;9.166;2022-07-29T08:43:21;26.20;87.60
2913;DHT22;1466;48.778;9.166;2022-07-29T08:45:49;26.20;87.50
2913;DHT22;1466;48.778;9.166;2022-07-29T08:48:20;26.20;86.90
2913;DHT22;1466;48.778;9.166;2022-07-29T08:50:48;26.30;87.10
2913;DHT22;1466;48.778;9.166;2022-07-29T08:53:15;26.50;86.80
2913;DHT22;1466;48.778;9.166;2022-07-29T08:55:47;26.50;84.20
2913;DHT22;1466;48.778;9.166;2022-07-29T08:58:14;26.40;83.90
2913;DHT22;1466;48.778;9.166;2022-07-29T09:00:43;26.40;83.60
2913;DHT22;1466;48.778;9.166;2022-07-29T09:03:09;26.50;83.90
2913;DHT22;1466;48.778;9.166;2022-07-29T09:05:37;26.70;83.30
2913;DHT22;1466;48.778;9.166;2022-07-29T09:08:04;26.80;82.80
2913;DHT22;1466;48.778;9.166;2022-07-29T09:10:30;26.80;82.30
2913;DHT22;1466;48.778;9.166;2022-07-29T09:12:56;26.80;82.20
2913;DHT22;1466;48.778;9.166;2022-07-29T09:15:22;26.80;82.10
2913;DHT22;1466;48.778;9.166;2022-07-29T09:17:49;26.90;82.10
2913;DHT22;1466;48.778;9.166;2022-07-29T09:20:17;27.10;82.10
2913;DHT22;1466;48.778;9.166;2022-07-29T09:22:44;27.30;81.90
2913;DHT22;1466;48.778;9.166;2022-07-29T09:25:15;27.40;81.40
2913;DHT22;1466;48.778;9.166;2022-07-29T09:28:05;27.50;80.80
2913;DHT22;1466;48.778;9.166;2022-07-29T09:30:31;27.50;80.60
2913;DHT22;1466;48.778;9.166;2022-07-29T09:33:03;27.60;80.60
2913;DHT22;1466;48.778;9.166;2022-07-29T09:35:29;27.80;80.30
2913;DHT22;1466;48.778;9.166;2022-07-29T09:37:55;27.90;80.10
2913;DHT22;1466;48.778;9.166;2022-07-29T09:40:26;28.00;79.70
2913;DHT22;1466;48.778;9.166;2022-07-29T09:42:53;28.30;79.10
2913;DHT22;1466;48.778;9.166;2022-07-29T09:45:33;29.00;78.00
2913;DHT22;1466;48.778;9.166;2022-07-29T09:48:12;29.60;75.80
2913;DHT22;1466;48.778;9.166;2022-07-29T09:50:39;29.90;73.80
2913;DHT22;1466;48.778;9.166;2022-07-29T09:53:05;30.10;73.40
2913;DHT22;1466;48.778;9.166;2022-07-29T09:55:31;30.10;73.70
2913;DHT22;1466;48.778;9.166;2022-07-29T09:58:15;30.20;73.60
2913;DHT22;1466;48.778;9.166;2022-07-29T10:00:43;30.00;74.00
2913;DHT22;1466;48.778;9.166;2022-07-29T10:03:09;29.90;74.40
2913;DHT22;1466;48.778;9.166;2022-07-29T10:05:34;29.60;74.90
2913;DHT22;1466;48.778;9.166;2022-07-29T10:08:00;29.50;76.00
2913;DHT22;1466;48.778;9.166;2022-07-29T10:10:28;29.30;75.30
2913;DHT22;1466;48.778;9.166;2022-07-29T10:12:55;29.20;75.50
2913;DHT22;1466;48.778;9.166;2022-07-29T10:15:24;29.10;75.70
2913;DHT22;1466;48.778;9.166;2022-07-29T10:17:51;29.10;75.50
2913;DHT22;1466;48.778;9.166;2022-07-29T10:20:18;29.30;75.30
2913;DHT22;1466;48.778;9.166;2022-07-29T10:22:44;29.20;75.10
2913;DHT22;1466;48.778;9.166;2022-07-29T10:25:12;29.00;74.80
2913;DHT22;1466;48.778;9.166;2022-07-29T10:27:39;28.80;75.20
2913;DHT22;1466;48.778;9.166;2022-07-29T10:30:05;28.70;75.70
2913;DHT22;1466;48.778;9.166;2022-07-29T10:43:29;27.80;79.30
2913;DHT22;1466;48.778;9.166;2022-07-29T10:45:57;27.50;80.30
2913;DHT22;1466;48.778;9.166;2022-07-29T10:48:25;27.20;80.90
2913;DHT22;1466;48.778;9.166;2022-07-29T10:50:57;27.00;81.70
2913;DHT22;1466;48.778;9.166;2022-07-29T10:53:24;26.90;82.40
2913;DHT22;1466;48.778;9.166;2022-07-29T10:55:51;26.70;83.80
2913;DHT22;1466;48.778;9.166;2022-07-29T10:58:21;26.50;85.40
2913;DHT22;1466;48.778;9.166;2022-07-29T11:00:53;26.50;86.70
2913;DHT22;1466;48.778;9.166;2022-07-29T11:06:07;26.30;88.70
2913;DHT22;1466;48.778;9.166;2022-07-29T11:08:32;26.20;89.50
2913;DHT22;1466;48.778;9.166;2022-07-29T11:13:51;26.00;91.50
2913;DHT22;1466;48.778;9.166;2022-07-29T11:16:20;25.90;92.40
2913;DHT22;1466;48.778;9.166;2022-07-29T11:21:36;25.50;94.30
2913;DHT22;1466;48.778;9.166;2022-07-29T11:24:29;25.20;95.30
2913;DHT22;1466;48.778;9.166;2022-07-29T11:27:32;25.00;96.40
2913;DHT22;1466;48.778;9.166;2022-07-29T11:30:05;24.80;97.70
2913;DHT22;1466;48.778;9.166;2022-07-29T11:32:39;24.70;98.30
2913;DHT22;1466;48.778;9.166;2022-07-29T11:35:20;24.80;98.90
2913;DHT22;1466;48.778;9.166;2022-07-29T11:38:22;24.70;99.40
2913;DHT22;1466;48.778;9.166;2022-07-29T11:40:33;24.80;99.90
2913;DHT22;1466;48.778;9.166;2022-07-29T11:42:58;24.80;99.90
2913;DHT22;1466;48.778;9.166;2022-07-29T11:45:25;24.80;99.90
2913;DHT22;1466;48.778;9.166;2022-07-29T11:47:56;24.80;99.90
2913;DHT22;1466;48.778;9.166;2022-07-29T11:50:30;24.80;99.90
2913;DHT22;1466;48.778;9.166;2022-07-29T11:52:56;24.80;99.90
2913;DHT22;1466;48.778;9.166;2022-07-29T11:55:23;24.90;99.90
2913;DHT22;1466;48.778;9.166;2022-07-29T11:57:57;24.90;99.90
2913;DHT22;1466;48.778;9.166;2022-07-29T12:00:27;25.00;99.90
2913;DHT22;1466;48.778;9.166;2022-07-29T12:02:54;25.10;99.90
2913;DHT22;1466;48.778;9.166;2022-07-29T12:05:20;25.10;99.90
2913;DHT22;1466;48.778;9.166;2022-07-29T12:07:46;25.20;99.90
2913;DHT22;1466;48.778;9.166;2022-07-29T12:10:13;25.30;99.90
2913;DHT22;1466;48.778;9.166;2022-07-29T12:12:38;25.30;99.40
2913;DHT22;1466;48.778;9.166;2022-07-29T12:15:15;25.30;99.20
2913;DHT22;1466;48.778;9.166;2022-07-29T12:17:43;25.40;98.70
2913;DHT22;1466;48.778;9.166;2022-07-29T12:20:09;25.40;98.40
2913;DHT22;1466;48.778;9.166;2022-07-29T12:22:37;25.50;98.10
2913;DHT22;1466;48.778;9.166;2022-07-29T12:25:07;25.50;97.30
2913;DHT22;1466;48.778;9.166;2022-07-29T12:27:33;25.50;96.90
2913;DHT22;1466;48.778;9.166;2022-07-29T12:30:02;25.60;96.60
2913;DHT22;1466;48.778;9.166;2022-07-29T12:32:36;25.70;96.40
2913;DHT22;1466;48.778;9.166;2022-07-29T12:35:11;25.60;96.10
2913;DHT22;1466;48.778;9.166;2022-07-29T12:37:39;25.50;95.80
2913;DHT22;1466;48.778;9.166;2022-07-29T12:40:07;25.30;95.60
2913;DHT22;1466;48.778;9.166;2022-07-29T12:42:33;25.10;95.70
2913;DHT22;1466;48.778;9.166;2022-07-29T12:45:00;25.10;95.80
2913;DHT22;1466;48.778;9.166;2022-07-29T12:47:25;25.00;95.70
2913;DHT22;1466;48.778;9.166;2022-07-29T12:50:08;24.90;95.90
2913;DHT22;1466;48.778;9.166;2022-07-29T12:52:34;24.80;95.80
2913;DHT22;1466;48.778;9.166;2022-07-29T12:55:00;24.70;95.80
2913;DHT22;1466;48.778;9.166;2022-07-29T12:57:27;24.70;95.90
2913;DHT22;1466;48.778;9.166;2022-07-29T13:00:10;24.70;95.90
2913;DHT22;1466;48.778;9.166;2022-07-29T13:02:37;24.70;96.00
2913;DHT22;1466;48.778;9.166;2022-07-29T13:05:05;24.70;96.10
2913;DHT22;1466;48.778;9.166;2022-07-29T13:07:32;24.60;96.20
2913;DHT22;1466;48.778;9.166;2022-07-29T13:12:36;24.50;96.30
2913;DHT22;1466;48.778;9.166;2022-07-29T13:15:14;24.40;96.40
2913;DHT22;1466;48.778;9.166;2022-07-29T13:17:42;24.40;96.50
2913;DHT22;1466;48.778;9.166;2022-07-29T13:20:10;24.40;96.60
2913;DHT22;1466;48.778;9.166;2022-07-29T13:22:40;24.30;97.20
2913;DHT22;1466;48.778;9.166;2022-07-29T13:25:08;24.20;98.10
2913;DHT22;1466;48.778;9.166;2022-07-29T13:27:35;24.10;99.00
2913;DHT22;1466;48.778;9.166;2022-07-29T13:30:09;24.00;99.60
2913;DHT22;1466;48.778;9.166;2022-07-29T13:32:35;24.00;99.90
2913;DHT22;1466;48.778;9.166;2022-07-29T13:35:04;24.00;99.90
2913;DHT22;1466;48.778;9.166;2022-07-29T13:37:30;23.90;99.90
2913;DHT22;1466;48.778;9.166;2022-07-29T13:39:58;23.90;99.90
2913;DHT22;1466;48.778;9.166;2022-07-29T13:42:24;23.80;99.90
2913;DHT22;1466;48.778;9.166;2022-07-29T13:44:51;23.70;99.90
2913;DHT22;1466;48.778;9.166;2022-07-29T13:47:21;23.80;99.90
2913;DHT22;1466;48.778;9.166;2022-07-29T13:49:47;24.00;99.90
2913;DHT22;1466;48.778;9.166;2022-07-29T13:52:13;24.10;99.90
2913;DHT22;1466;48.778;9.166;2022-07-29T13:54:38;24.20;99.90
2913;DHT22;1466;48.778;9.166;2022-07-29T13:57:04;24.30;99.90
2913;DHT22;1466;48.778;9.166;2022-07-29T13:59:30;24.50;99.90
2913;DHT22;1466;48.778;9.166;2022-07-29T14:01:56;24.60;99.90
2913;DHT22;1466;48.778;9.166;2022-07-29T14:04:22;24.70;99.90
2913;DHT22;1466;48.778;9.166;2022-07-29T14:06:49;24.90;99.90
2913;DHT22;1466;48.778;9.166;2022-07-29T14:09:14;25.00;99.90
2913;DHT22;1466;48.778;9.166;2022-07-29T14:11:40;25.10;99.90
2913;DHT22;1466;48.778;9.166;2022-07-29T14:14:06;25.20;99.90
2913;DHT22;1466;48.778;9.166;2022-07-29T14:16:31;25.20;99.90
2913;DHT22;1466;48.778;9.166;2022-07-29T14:18:57;25.20;99.90
2913;DHT22;1466;48.778;9.166;2022-07-29T14:21:23;25.30;99.80
2913;DHT22;1466;48.778;9.166;2022-07-29T14:23:49;25.30;99.50
2913;DHT22;1466;48.778;9.166;2022-07-29T14:26:14;25.40;99.50
2913;DHT22;1466;48.778;9.166;2022-07-29T14:28:40;25.50;99.50
2913;DHT22;1466;48.778;9.166;2022-07-29T14:31:05;25.50;99.50
2913;DHT22;1466;48.778;9.166;2022-07-29T14:33:31;25.70;99.40
2913;DHT22;1466;48.778;9.166;2022-07-29T14:35:57;25.70;98.80
2913;DHT22;1466;48.778;9.166;2022-07-29T14:38:22;25.80;98.50
2913;DHT22;1466;48.778;9.166;2022-07-29T14:40:49;25.90;98.30
2913;DHT22;1466;48.778;9.166;2022-07-29T14:43:14;26.00;98.20
2913;DHT22;1466;48.778;9.166;2022-07-29T14:45:40;26.00;97.80
2913;DHT22;1466;48.778;9.166;2022-07-29T14:48:06;26.00;97.70
2913;DHT22;1466;48.778;9.166;2022-07-29T14:50:32;26.00;97.60
2913;DHT22;1466;48.778;9.166;2022-07-29T14:52:59;26.00;97.40
2913;DHT22;1466;48.778;9.166;2022-07-29T14:55:25;26.10;97.30
2913;DHT22;1466;48.778;9.166;2022-07-29T14:57:50;26.10;96.80
2913;DHT22;1466;48.778;9.166;2022-07-29T15:00:16;26.20;96.70
2913;DHT22;1466;48.778;9.166;2022-07-29T15:02:42;26.20;96.50
2913;DHT22;1466;48.778;9.166;2022-07-29T15:05:08;26.20;96.40
2913;DHT22;1466;48.778;9.166;2022-07-29T15:07:34;26.30;96.20
2913;DHT22;1466;48.778;9.166;2022-07-29T15:09:59;26.30;96.10
2913;DHT22;1466;48.778;9.166;2022-07-29T15:12:25;26.30;96.10
2913;DHT22;1466;48.778;9.166;2022-07-29T15:14:50;26.30;96.10
2913;DHT22;1466;48.778;9.166;2022-07-29T15:17:16;26.40;96.50
2913;DHT22;1466;48.778;9.166;2022-07-29T15:19:42;26.40;96.00
2913;DHT22;1466;48.778;9.166;2022-07-29T15:22:07;26.50;96.10
2913;DHT22;1466;48.778;9.166;2022-07-29T15:24:33;26.50;96.00
2913;DHT22;1466;48.778;9.166;2022-07-29T15:26:59;26.60;96.10
2913;DHT22;1466;48.778;9.166;2022-07-29T15:29:25;26.50;96.00
2913;DHT22;1466;48.778;9.166;2022-07-29T15:31:50;26.60;96.10
2913;DHT22;1466;48.778;9.166;2022-07-29T15:34:16;26.50;96.20
2913;DHT22;1466;48.778;9.166;2022-07-29T15:36:42;26.50;96.20
2913;DHT22;1466;48.778;9.166;2022-07-29T15:39:07;26.50;96.30
2913;DHT22;1466;48.778;9.166;2022-07-29T15:41:34;26.40;96.40
2913;DHT22;1466;48.778;9.166;2022-07-29T15:43:59;26.40;96.30
2913;DHT22;1466;48.778;9.166;2022-07-29T15:46:25;26.40;96.20
2913;DHT22;1466;48.778;9.166;2022-07-29T15:49:09;26.40;96.30
2913;DHT22;1466;48.778;9.166;2022-07-29T15:51:35;26.30;96.40
2913;DHT22;1466;48.778;9.166;2022-07-29T15:54:02;26.30;96.40
2913;DHT22;1466;48.778;9.166;2022-07-29T15:56:28;26.30;96.60
2913;DHT22;1466;48.778;9.166;2022-07-29T15:58:54;26.30;96.60
2913;DHT22;1466;48.778;9.166;2022-07-29T16:01:19;26.30;96.80
2913;DHT22;1466;48.778;9.166;2022-07-29T16:03:45;26.30;96.80
2913;DHT22;1466;48.778;9.166;2022-07-29T16:06:11;26.30;96.90
2913;DHT22;1466;48.778;9.166;2022-07-29T16:08:36;26.20;97.00
2913;DHT22;1466;48.778;9.166;2022-07-29T16:11:02;26.20;97.20
2913;DHT22;1466;48.778;9.166;2022-07-29T16:13:28;26.20;97.40
2913;DHT22;1466;48.778;9.166;2022-07-29T16:15:53;26.30;97.60
2913;DHT22;1466;48.778;9.166;2022-07-29T16:18:19;26.20;97.80
2913;DHT22;1466;48.778;9.166;2022-07-29T16:20:45;26.30;97.90
2913;DHT22;1466;48.778;9.166;2022-07-29T16:23:10;26.20;98.00
2913;DHT22;1466;48.778;9.166;2022-07-29T16:25:39;26.30;98.10
2913;DHT22;1466;48.778;9.166;2022-07-29T16:28:05;26.30;97.90
2913;DHT22;1466;48.778;9.166;2022-07-29T16:30:30;26.20;97.70
2913;DHT22;1466;48.778;9.166;2022-07-29T16:32:56;26.20;97.60
2913;DHT22;1466;48.778;9.166;2022-07-29T16:35:22;26.10;97.50